Overview Statistics Trail Chart Weather Telemetry Raw packets
 

This is the latest recevied weather packets stored in our database for station/object IU2RPR-3. If no packets are shown the sender has not sent any weather packets the latest 10 day(s).

<< 19 20 21 22 23 24 25 >>
Time Temp. Humidity Pressure Rain* Wind** Luminosity Snow
1787944483 20.56° C 89% 1012 hPa - - - -
1787943281 20.56° C 90% 1012 hPa - - - -
1787942086 20.56° C 87% 1012.2 hPa - - - -
1787940878 20.56° C 94% 1012.8 hPa - - - -
1787939670 21.11° C 82% 1013.3 hPa - - - -
1787938467 22.22° C 82% 1013.7 hPa - - - -
1787937266 22.22° C 78% 1013.8 hPa - - - -
1787936064 22.22° C 79% 1014.2 hPa - - - -
1787934862 23.33° C 85% 1012.9 hPa - - - -
1787933660 23.33° C 86% 1013.1 hPa - - - -
1787932485 22.78° C 88% 1013.5 hPa - - - -
1787931280 23.89° C 80% 1012.9 hPa - - - -
1787930078 23.33° C 80% 1012.4 hPa - - - -
1787928877 23.33° C 82% 1012.7 hPa - - - -
1787927675 27.78° C 75% 1012.4 hPa - - - -
1787926473 28.89° C 59% 1012.5 hPa - - - -
1787925272 29.44° C 59% 1012.2 hPa - - - -
1787924071 30.56° C 53% 1012.1 hPa - - - -
1787922869 32.78° C 50% 1012.4 hPa - - - -
1787921667 32.22° C 51% 1012.5 hPa - - - -
1787920465 31.11° C 54% 1013 hPa - - - -
1787919263 31.67° C 54% 1013.1 hPa - - - -
1787918062 29.44° C 59% 1013.7 hPa - - - -
1787916861 29.44° C 62% 1013.4 hPa - - - -
1787915657 28.33° C 65% 1013.8 hPa - - - -

* Rain since midnight (hover to see other rain measurements)
** Current wind speed in m/s (hover to see current wind gust speed)